WPDL

Presidente Nicolau Lobato International Airport

Dili, Timor-Leste
TAF AMD WPDL 220710Z 2208/2220 29008KT 9999 SCT020 FM221200 14006KT 9999 SCT025 PROB30 TEMPO 2215/2220 VRB20G35KT 1000 TSRA BKN010 SCT020CB
Issued Valid From Valid To
Jan-22 @ 07:10 UTC
(10 hours ago)
Jan-22 @ 08:00 UTC
(10 hours ago)
Jan-22 @ 20:00 UTC
(in 2 hours)
Expired Click to View Jan-22 @ 08:00 to Jan-22 @ 12:00
TAF AMD WPDL 220710Z 2208/2220 29008KT 9999 SCT020
Wind Visibility Clouds
290° at 8 knots 10,000+ meters
  • Scattered at 2,000' AGL
From Jan-22 @ 12:00 to Jan-22 @ 20:00
FM221200 14006KT 9999 SCT025
Wind Visibility Clouds
140° at 6 knots 10,000+ meters
  • Scattered at 2,500' AGL
Temporary  (Probability 30%) Jan-22 @ 15:00 to Jan-22 @ 20:00
PROB30 TEMPO 2215/2220 VRB20G35KT 1000 TSRA BKN010 SCT020CB
Wind Visibility Clouds Conditions
Variable at 20 knots
 Gusting to 35 knots
998 meters
  • Broken at 1,000' AGL
  • Scattered at 2,000' AGL
  • Thunderstorm
  • Rain
TAF AMD WPDL 220710Z 2208/2220 29008KT 9999 SCT020 FM221200 14006KT 9999 SCT025 PROB30 TEMPO 2215/2220 VRB20G35KT 1000 TSRA BKN010 SCT020CB
Issued Jan-22 @ 07:10 UTC
(10 hours ago)
Valid From Jan-22 @ 08:00 UTC
(10 hours ago)
Valid To Jan-22 @ 20:00 UTC
(in 2 hours)
Jan-22 @ 08:00 - Jan-22 @ 12:00
Wind Visibility
290° at 8 knots 10,000+ meters
Clouds
  • Scattered at 2,000' AGL
From Jan-22 @ 12:00 - Jan-22 @ 20:00
Wind Visibility
140° at 6 knots 10,000+ meters
Clouds
  • Scattered at 2,500' AGL
Probability 30% Temporary Jan-22 @ 15:00 - Jan-22 @ 20:00
Wind Visibility
Variable at 20 knots
 Gusting to 35 knots
998 meters
Clouds
  • Broken at 1,000' AGL
  • Scattered at 2,000' AGL
Conditions
  • Thunderstorm
  • Rain